createdAt,value
2024-04-23T00:00:13.802Z,8.86
2024-04-23T00:03:32.490Z,8.84
2024-04-23T00:06:50.091Z,8.79
2024-04-23T00:10:08.243Z,8.77
2024-04-23T00:13:25.754Z,8.77
2024-04-23T00:16:43.306Z,8.79
2024-04-23T00:20:00.934Z,8.75
2024-04-23T00:23:19.080Z,8.80
2024-04-23T00:26:36.536Z,8.82
2024-04-23T00:29:53.976Z,8.78
2024-04-23T00:33:12.771Z,8.75
2024-04-23T00:36:30.476Z,8.73
2024-04-23T00:39:47.915Z,8.74
2024-04-23T00:43:05.465Z,8.77
2024-04-23T00:46:23.439Z,8.56
2024-04-23T00:49:41.334Z,8.53
2024-04-23T00:52:59.416Z,8.63
2024-04-23T00:56:19.308Z,8.29
2024-04-23T00:59:36.953Z,8.31
2024-04-23T01:02:54.452Z,8.38
2024-04-23T01:06:12.534Z,8.23
2024-04-23T01:09:30.517Z,8.14
2024-04-23T01:12:47.903Z,8.01
2024-04-23T01:16:05.840Z,7.88
2024-04-23T01:19:29.408Z,7.71
2024-04-23T01:22:53.472Z,7.81
2024-04-23T01:26:14.771Z,8.02
2024-04-23T01:29:33.054Z,8.12
2024-04-23T01:32:52.207Z,8.16
2024-04-23T01:36:10.380Z,8.21
2024-04-23T01:39:28.077Z,8.31
2024-04-23T01:42:46.386Z,8.24
2024-04-23T01:46:04.552Z,8.33
2024-04-23T01:49:22.167Z,8.23
2024-04-23T01:52:40.111Z,8.26
2024-04-23T01:55:57.875Z,8.38
2024-04-23T01:59:15.701Z,8.39
2024-04-23T02:02:33.746Z,8.28
2024-04-23T02:05:51.503Z,8.27
2024-04-23T02:09:09.341Z,8.21
2024-04-23T02:12:29.493Z,8.22
2024-04-23T02:15:46.969Z,8.17
2024-04-23T02:19:04.136Z,8.17
2024-04-23T02:22:21.999Z,8.13
2024-04-23T02:25:39.962Z,8.10
2024-04-23T02:28:57.283Z,8.17
2024-04-23T02:32:15.306Z,8.18
2024-04-23T02:35:32.935Z,8.16
2024-04-23T02:38:50.462Z,8.28
2024-04-23T02:42:08.768Z,8.24
2024-04-23T02:45:29.189Z,8.27
2024-04-23T02:48:45.175Z,8.14
2024-04-23T02:52:05.563Z,8.18
2024-04-23T02:55:23.129Z,8.24
2024-04-23T02:58:40.623Z,8.23
2024-04-23T03:02:03.472Z,8.25
2024-04-23T03:05:21.081Z,8.22
2024-04-23T03:08:38.602Z,8.21
2024-04-23T03:12:02.831Z,8.22
2024-04-23T03:15:20.487Z,8.23
2024-04-23T03:18:38.016Z,8.26
2024-04-23T03:22:03.490Z,8.24
2024-04-23T03:25:20.834Z,8.30
2024-04-23T03:28:38.375Z,8.31
2024-04-23T03:31:58.048Z,8.32
2024-04-23T03:35:16.246Z,8.37
2024-04-23T03:38:33.721Z,8.40
2024-04-23T03:42:00.510Z,8.42
2024-04-23T03:45:18.099Z,8.46
2024-04-23T03:48:35.661Z,8.34
2024-04-23T03:51:53.230Z,8.42
2024-04-23T03:55:10.948Z,8.47
2024-04-23T03:58:28.512Z,8.46
2024-04-23T04:01:46.183Z,8.41
2024-04-23T04:05:22.554Z,8.42
2024-04-23T04:08:40.677Z,8.41
2024-04-23T04:11:58.334Z,8.49
2024-04-23T04:15:16.527Z,8.48
2024-04-23T04:18:34.287Z,8.54
2024-04-23T04:21:51.884Z,8.55
2024-04-23T04:25:09.296Z,8.45
2024-04-23T04:28:27.014Z,8.57
2024-04-23T04:31:44.605Z,8.60
2024-04-23T04:35:02.230Z,8.45
2024-04-23T04:38:19.747Z,8.52
2024-04-23T04:41:37.194Z,8.60
2024-04-23T04:44:54.601Z,8.70
2024-04-23T04:48:12.843Z,8.78
2024-04-23T04:51:30.376Z,8.67
2024-04-23T04:54:47.731Z,8.79
2024-04-23T04:58:05.585Z,8.82
2024-04-23T05:01:22.990Z,8.75
2024-04-23T05:04:40.784Z,8.80
2024-04-23T05:07:58.387Z,8.92
2024-04-23T05:11:16.262Z,9.01
2024-04-23T05:14:33.804Z,8.92
2024-04-23T05:17:51.390Z,9.07
2024-04-23T05:21:09.095Z,9.11
2024-04-23T05:24:26.388Z,9.29
2024-04-23T05:27:43.837Z,9.24
2024-04-23T05:31:11.208Z,9.39
2024-04-23T05:34:28.774Z,9.44
2024-04-23T05:37:46.375Z,9.59
2024-04-23T05:41:04.212Z,9.87
2024-04-23T05:44:23.470Z,9.98
2024-04-23T05:47:54.122Z,9.88
2024-04-23T05:52:15.864Z,10.19
2024-04-23T05:55:49.083Z,10.33
2024-04-23T05:59:05.821Z,10.67
2024-04-23T06:02:23.771Z,10.98
2024-04-23T06:05:41.851Z,10.88
2024-04-23T06:08:59.655Z,11.23
2024-04-23T06:12:18.037Z,10.94
2024-04-23T06:15:36.072Z,11.48
2024-04-23T06:18:53.954Z,11.84
2024-04-23T06:22:11.870Z,12.18
2024-04-23T06:25:30.025Z,12.69
2024-04-23T06:28:47.701Z,13.29
2024-04-23T06:32:05.400Z,13.54
2024-04-23T06:35:23.262Z,13.41
2024-04-23T06:38:40.852Z,13.78
2024-04-23T06:41:58.684Z,13.93
2024-04-23T16:47:52.775Z,16.19
2024-04-23T16:51:10.568Z,15.77
2024-04-23T16:54:28.570Z,15.66
2024-04-23T16:57:46.164Z,15.80
2024-04-23T17:01:03.437Z,15.87
2024-04-23T17:04:20.885Z,15.49
2024-04-23T17:07:38.702Z,15.56
2024-04-23T17:10:56.151Z,15.59
2024-04-23T17:14:13.667Z,15.66
2024-04-23T17:17:31.233Z,15.32
2024-04-23T17:20:54.033Z,15.29
2024-04-23T17:24:12.448Z,15.02
2024-04-23T17:27:29.676Z,15.24
2024-04-23T17:30:50.105Z,15.19
2024-04-23T17:34:08.263Z,15.04
2024-04-23T17:37:25.437Z,15.12
2024-04-23T17:40:46.846Z,14.93
2024-04-23T17:44:04.678Z,14.91
2024-04-23T17:47:22.165Z,14.73
2024-04-23T17:50:39.353Z,14.60
2024-04-23T17:54:03.003Z,14.61
2024-04-23T17:57:20.593Z,14.48
2024-04-23T18:00:35.431Z,14.28
2024-04-23T18:03:53.589Z,14.30
2024-04-23T18:07:10.800Z,14.33
2024-04-23T18:10:28.037Z,14.33
2024-04-23T18:13:45.490Z,14.22
2024-04-23T18:17:04.406Z,14.21
2024-04-23T18:20:21.976Z,14.20
2024-04-23T18:23:41.750Z,14.08
2024-04-23T18:26:58.950Z,14.07
2024-04-23T18:30:18.230Z,14.14
2024-04-23T18:33:36.290Z,14.03
2024-04-23T18:36:53.729Z,14.06
2024-04-23T18:40:11.803Z,14.02
2024-04-23T18:43:28.874Z,14.00
2024-04-23T18:46:44.045Z,13.96
2024-04-23T18:50:01.231Z,13.88
2024-04-23T18:53:18.708Z,13.81
2024-04-23T18:56:36.536Z,13.68
2024-04-23T18:59:53.776Z,13.62
2024-04-23T19:03:10.931Z,13.49
2024-04-23T19:06:28.587Z,13.42
2024-04-23T19:09:47.931Z,13.29
2024-04-23T19:13:05.159Z,13.19
2024-04-23T19:16:22.739Z,13.20
2024-04-23T19:19:39.855Z,13.01
2024-04-23T19:22:56.760Z,12.95
2024-04-23T19:26:14.115Z,12.97
2024-04-23T19:29:31.317Z,12.81
2024-04-23T19:32:49.184Z,12.73
2024-04-23T19:36:08.474Z,12.65
2024-04-23T19:39:26.207Z,12.58
2024-04-23T19:42:43.788Z,12.52
2024-04-23T19:46:01.126Z,12.38
2024-04-23T19:49:18.304Z,12.40
2024-04-23T19:52:35.451Z,12.41
2024-04-23T19:55:54.463Z,12.34
2024-04-23T19:59:12.518Z,12.25
2024-04-23T20:02:29.882Z,12.22
2024-04-23T20:05:47.104Z,12.16
2024-04-23T20:09:04.318Z,12.05
2024-04-23T20:12:21.464Z,12.00
2024-04-23T20:15:38.712Z,12.22
2024-04-23T20:18:56.214Z,12.06
2024-04-23T20:22:13.617Z,11.96
2024-04-23T20:25:30.931Z,12.01
2024-04-23T20:28:48.149Z,12.24
2024-04-23T20:32:05.631Z,12.31
2024-04-23T20:35:22.848Z,12.27
2024-04-23T20:38:40.062Z,12.27
2024-04-23T20:41:57.235Z,12.32
2024-04-23T20:45:16.102Z,12.38
2024-04-23T20:48:33.472Z,12.48
2024-04-23T20:51:50.915Z,12.50
2024-04-23T20:55:08.160Z,12.46
2024-04-23T20:58:25.869Z,12.37
2024-04-23T21:01:43.148Z,12.34
2024-04-23T21:05:00.578Z,12.44
2024-04-23T21:08:18.611Z,12.46
2024-04-23T21:11:37.461Z,12.65
2024-04-23T21:14:54.919Z,12.68
2024-04-23T21:18:12.629Z,12.75
2024-04-23T21:21:31.244Z,12.81
2024-04-23T21:24:48.472Z,12.79
2024-04-23T21:28:05.605Z,12.65
2024-04-23T21:31:22.993Z,12.65
2024-04-23T21:34:40.668Z,12.60
2024-04-23T21:37:57.898Z,12.62
2024-04-23T21:41:17.322Z,12.58
2024-04-23T21:44:34.689Z,12.61
2024-04-23T21:47:52.211Z,12.68
2024-04-23T21:51:16.477Z,12.58
2024-04-23T21:54:33.661Z,12.54
2024-04-23T21:57:51.888Z,12.60
2024-04-23T22:01:10.823Z,12.56
2024-04-23T22:04:28.575Z,12.52
2024-04-23T22:07:50.636Z,12.64
2024-04-23T22:11:07.995Z,12.59
2024-04-23T22:14:25.904Z,12.61
2024-04-23T22:17:44.162Z,12.60
2024-04-23T22:21:01.525Z,12.57
2024-04-23T22:24:19.234Z,12.46
2024-04-23T22:27:36.328Z,12.43
2024-04-23T22:30:53.677Z,12.42
2024-04-23T22:34:12.046Z,12.46
2024-04-23T22:37:29.360Z,12.37
2024-04-23T22:40:46.508Z,12.42
2024-04-23T22:44:03.956Z,12.49
2024-04-23T22:47:23.092Z,12.55
2024-04-23T22:50:40.330Z,12.58
2024-04-23T22:53:57.528Z,12.56
2024-04-23T22:57:15.049Z,12.57
2024-04-23T23:00:32.411Z,12.52
2024-04-23T23:03:49.431Z,12.57
2024-04-23T23:07:06.911Z,12.57
2024-04-23T23:10:23.970Z,12.53
2024-04-23T23:13:41.115Z,12.59
2024-04-23T23:16:58.235Z,12.71
2024-04-23T23:20:17.113Z,12.75
2024-04-23T23:23:34.227Z,12.80
2024-04-23T23:26:49.016Z,12.79
2024-04-23T23:30:05.907Z,12.85
2024-04-23T23:33:23.063Z,12.89
2024-04-23T23:36:40.383Z,12.86
2024-04-23T23:39:57.537Z,12.87
2024-04-23T23:43:14.743Z,12.76
2024-04-23T23:46:31.495Z,12.85
2024-04-23T23:49:48.594Z,12.87
2024-04-23T23:53:05.902Z,12.98
2024-04-23T23:56:23.119Z,13.04
2024-04-23T23:59:40.417Z,13.03
